createdAt,value
2023-03-01T00:01:32.200Z,-3.81
2023-03-01T00:03:35.679Z,-3.85
2023-03-01T00:05:45.895Z,-3.84
2023-03-01T00:07:48.826Z,-3.90
2023-03-01T00:09:51.681Z,-3.91
2023-03-01T00:11:54.675Z,-3.93
2023-03-01T00:13:59.757Z,-4.03
2023-03-01T00:16:04.615Z,-4.00
2023-03-01T00:18:07.977Z,-4.06
2023-03-01T00:20:12.275Z,-4.02
2023-03-01T00:22:16.656Z,-4.00
2023-03-01T00:24:19.596Z,-3.99
2023-03-01T00:26:24.630Z,-3.97
2023-03-01T00:28:27.659Z,-3.94
2023-03-01T00:30:30.630Z,-3.92
2023-03-01T00:32:33.578Z,-3.93
2023-03-01T00:34:36.537Z,-3.91
2023-03-01T00:36:40.079Z,-3.89
2023-03-01T00:38:46.298Z,-3.87
2023-03-01T00:40:49.371Z,-3.92
2023-03-01T00:42:52.316Z,-4.14
2023-03-01T00:44:55.197Z,-4.15
2023-03-01T00:46:58.393Z,-4.17
2023-03-01T00:49:03.395Z,-4.32
2023-03-01T00:51:07.609Z,-4.36
2023-03-01T00:53:10.689Z,-4.35
2023-03-01T00:55:14.997Z,-4.27
2023-03-01T00:57:17.904Z,-4.27
2023-03-01T00:59:20.842Z,-4.49
2023-03-01T01:01:27.327Z,-4.53
2023-03-01T01:03:30.182Z,-4.46
2023-03-01T01:05:35.980Z,-4.39
2023-03-01T01:07:39.880Z,-4.49
2023-03-01T01:09:42.812Z,-4.60
2023-03-01T01:11:48.447Z,-4.60
2023-03-01T01:13:51.650Z,-4.58
2023-03-01T01:15:54.573Z,-4.59
2023-03-01T01:17:58.657Z,-4.57
2023-03-01T01:20:01.551Z,-4.57
2023-03-01T01:22:04.690Z,-4.53
2023-03-01T01:24:08.789Z,-4.53
2023-03-01T01:26:15.127Z,-4.51
2023-03-01T01:28:19.620Z,-4.50
2023-03-01T01:30:22.638Z,-4.50
2023-03-01T01:32:27.045Z,-4.53
2023-03-01T01:34:30.210Z,-4.69
2023-03-01T01:36:34.442Z,-4.71
2023-03-01T01:38:38.732Z,-4.60
2023-03-01T01:40:45.559Z,-4.57
2023-03-01T01:42:48.589Z,-4.56
2023-03-01T01:45:25.050Z,-4.61
2023-03-01T01:47:29.679Z,-4.69
2023-03-01T01:49:37.015Z,-4.69
2023-03-01T01:51:43.493Z,-4.81
2023-03-01T01:53:50.061Z,-4.76
2023-03-01T01:55:58.378Z,-4.70
2023-03-01T01:58:06.088Z,-4.70
2023-03-01T02:00:13.450Z,-4.65
2023-03-01T02:02:16.257Z,-4.66
2023-03-01T02:04:21.269Z,-4.67
2023-03-01T02:06:31.704Z,-4.73
2023-03-01T02:08:39.102Z,-4.83
2023-03-01T02:10:42.702Z,-4.76
2023-03-01T02:12:47.407Z,-4.71
2023-03-01T02:14:50.297Z,-4.71
2023-03-01T02:16:53.748Z,-4.76
2023-03-01T02:18:57.372Z,-4.81
2023-03-01T02:21:15.039Z,-4.76
2023-03-01T02:23:18.953Z,-4.76
2023-03-01T02:25:37.230Z,-4.78
2023-03-01T02:27:49.722Z,-4.88
2023-03-01T02:29:55.733Z,-4.94
2023-03-01T02:32:03.996Z,-4.91
2023-03-01T02:34:09.968Z,-4.92
2023-03-01T02:36:17.309Z,-4.91
2023-03-01T02:38:21.079Z,-4.87
2023-03-01T02:40:24.390Z,-4.83
2023-03-01T02:42:32.996Z,-4.84
2023-03-01T02:44:35.938Z,-4.90
2023-03-01T02:46:47.215Z,-5.00
2023-03-01T02:48:52.601Z,-4.96
2023-03-01T02:51:06.952Z,-5.10
2023-03-01T02:53:17.091Z,-5.35
2023-03-01T02:55:20.566Z,-5.49
2023-03-01T02:57:24.744Z,-5.34
2023-03-01T02:59:33.340Z,-5.32
2023-03-01T03:01:37.855Z,-5.37
2023-03-01T03:03:44.766Z,-5.31
2023-03-01T03:05:48.994Z,-5.26
2023-03-01T03:07:52.873Z,-5.31
2023-03-01T03:09:55.940Z,-5.35
2023-03-01T03:11:58.919Z,-5.49
2023-03-01T03:14:02.877Z,-5.38
2023-03-01T03:16:06.899Z,-5.42
2023-03-01T03:18:12.023Z,-5.33
2023-03-01T03:20:20.405Z,-5.30
2023-03-01T03:22:23.362Z,-5.29
2023-03-01T03:24:26.289Z,-5.34
2023-03-01T03:26:29.667Z,-5.29
2023-03-01T03:28:32.855Z,-5.34
2023-03-01T03:30:35.789Z,-5.25
2023-03-01T03:32:38.748Z,-5.28
2023-03-01T03:34:41.549Z,-5.28
2023-03-01T03:36:45.962Z,-5.46
2023-03-01T03:38:50.061Z,-5.54
2023-03-01T03:41:02.430Z,-5.54
2023-03-01T03:43:07.247Z,-5.49
2023-03-01T03:45:10.587Z,-5.39
2023-03-01T03:47:13.473Z,-5.41
2023-03-01T03:49:16.378Z,-5.35
2023-03-01T03:51:19.887Z,-5.37
2023-03-01T03:53:26.708Z,-5.33
2023-03-01T03:55:32.278Z,-5.32
2023-03-01T03:57:34.768Z,-5.32
2023-03-01T03:59:37.740Z,-5.37
2023-03-01T04:01:40.690Z,-5.45
2023-03-01T04:03:47.821Z,-5.67
2023-03-01T04:05:54.192Z,-5.57
2023-03-01T04:08:02.803Z,-5.53
2023-03-01T04:10:11.152Z,-5.55
2023-03-01T04:12:14.069Z,-5.60
2023-03-01T04:14:16.929Z,-5.55
2023-03-01T04:16:19.941Z,-5.64
2023-03-01T04:18:25.908Z,-5.83
2023-03-01T04:20:30.607Z,-5.98
2023-03-01T04:22:34.797Z,-5.79
2023-03-01T04:24:37.772Z,-5.83
2023-03-01T04:26:42.079Z,-5.84
2023-03-01T04:28:46.477Z,-5.83
2023-03-01T04:30:49.498Z,-5.79
2023-03-01T04:32:52.676Z,-5.76
2023-03-01T04:34:55.629Z,-5.69
2023-03-01T04:36:58.781Z,-5.65
2023-03-01T04:39:13.580Z,-5.59
2023-03-01T04:41:18.129Z,-5.59
2023-03-01T04:43:22.740Z,-5.62
2023-03-01T04:45:25.799Z,-5.60
2023-03-01T04:47:28.579Z,-5.58
2023-03-01T04:49:32.401Z,-5.61
2023-03-01T04:51:35.256Z,-5.65
2023-03-01T04:53:38.249Z,-5.57
2023-03-01T04:55:41.260Z,-5.51
2023-03-01T04:57:44.540Z,-5.51
2023-03-01T04:59:48.859Z,-5.65
2023-03-01T05:01:51.829Z,-5.66
2023-03-01T05:03:54.829Z,-5.64
2023-03-01T05:06:01.090Z,-5.77
2023-03-01T05:08:05.591Z,-5.72
2023-03-01T05:10:09.826Z,-5.78
2023-03-01T05:12:13.010Z,-5.74
2023-03-01T05:14:16.172Z,-5.68
2023-03-01T05:16:21.249Z,-5.65
2023-03-01T05:18:27.334Z,-5.59
2023-03-01T05:20:31.463Z,-5.57
2023-03-01T05:22:34.391Z,-5.53
2023-03-01T05:24:37.711Z,-5.53
2023-03-01T05:26:42.843Z,-5.58
2023-03-01T05:28:46.384Z,-5.59
2023-03-01T05:30:49.314Z,-5.58
2023-03-01T05:32:57.104Z,-5.56
2023-03-01T05:35:00.010Z,-5.58
2023-03-01T05:37:03.419Z,-5.54
2023-03-01T05:39:06.309Z,-5.54
2023-03-01T05:41:15.826Z,-5.59
2023-03-01T05:43:19.448Z,-5.57
2023-03-01T05:45:22.889Z,-5.58
2023-03-01T05:47:26.140Z,-5.55
2023-03-01T05:49:31.440Z,-5.52
2023-03-01T05:51:35.359Z,-5.48
2023-03-01T05:53:38.321Z,-5.42
2023-03-01T05:55:41.581Z,-5.32
2023-03-01T05:57:44.592Z,-5.33
2023-03-01T05:59:47.629Z,-5.37
2023-03-01T06:01:51.325Z,-5.34
2023-03-01T06:03:54.425Z,-5.32
2023-03-01T06:05:59.683Z,-5.41
2023-03-01T06:08:03.360Z,-5.46
2023-03-01T06:10:08.596Z,-5.52
2023-03-01T06:12:13.876Z,-5.33
2023-03-01T06:14:17.011Z,-5.26
2023-03-01T06:16:19.964Z,-5.17
2023-03-01T06:18:23.505Z,-5.06
2023-03-01T06:20:29.097Z,-4.96
2023-03-01T06:22:33.674Z,-4.89
2023-03-01T06:24:36.809Z,-4.44
2023-03-01T06:26:39.878Z,-4.22
2023-03-01T06:28:42.795Z,-3.76
2023-03-01T06:30:45.905Z,-3.46
2023-03-01T06:32:49.184Z,-3.06
2023-03-01T06:34:52.205Z,-2.72
2023-03-01T06:36:55.075Z,-2.46
2023-03-01T06:38:59.637Z,-2.20
2023-03-01T06:41:03.165Z,-1.82
2023-03-01T06:43:06.269Z,-1.29
2023-03-01T06:45:10.718Z,-0.68
2023-03-01T06:47:13.797Z,0.15
2023-03-01T06:49:17.739Z,0.76
2023-03-01T06:51:20.776Z,1.68
2023-03-01T06:53:23.635Z,2.49
2023-03-01T06:55:28.392Z,3.06
2023-03-01T06:57:31.557Z,3.54
2023-03-01T06:59:34.522Z,4.10
2023-03-01T07:01:37.483Z,4.49
2023-03-01T07:03:40.409Z,4.99
2023-03-01T07:05:43.471Z,5.43
2023-03-01T07:07:46.648Z,5.76
2023-03-01T07:09:50.806Z,5.98
2023-03-01T07:11:55.349Z,6.76
2023-03-01T07:13:59.682Z,7.25
2023-03-01T07:16:02.806Z,7.33
2023-03-01T07:18:05.825Z,7.55
2023-03-01T07:20:10.160Z,8.02
2023-03-01T07:22:13.096Z,8.50
2023-03-01T07:24:16.444Z,8.99
2023-03-01T07:26:19.333Z,9.42
2023-03-01T07:28:24.549Z,9.11
2023-03-01T07:30:29.616Z,9.07
2023-03-01T07:32:32.958Z,9.29
2023-03-01T07:34:36.044Z,9.71
2023-03-01T07:36:39.012Z,10.47
2023-03-01T07:38:42.252Z,10.18
2023-03-01T07:40:45.049Z,10.32
2023-03-01T07:42:48.111Z,10.62
2023-03-01T07:44:52.449Z,10.62
2023-03-01T07:46:57.588Z,9.80
2023-03-01T07:49:00.661Z,10.37
2023-03-01T07:51:06.501Z,9.52
2023-03-01T07:53:10.339Z,10.29
2023-03-01T07:55:13.394Z,9.98
2023-03-01T07:57:16.481Z,11.02
2023-03-01T07:59:19.472Z,11.25
2023-03-01T08:01:24.260Z,11.28
2023-03-01T08:03:27.486Z,10.88
2023-03-01T08:05:30.830Z,11.47
2023-03-01T08:07:34.768Z,10.96
2023-03-01T08:09:38.857Z,11.24
2023-03-01T08:11:41.768Z,9.47
2023-03-01T08:13:45.567Z,10.56
2023-03-01T08:15:48.737Z,9.45
2023-03-01T08:17:53.187Z,10.04
2023-03-01T08:19:56.167Z,9.55
2023-03-01T08:21:59.556Z,9.92
2023-03-01T08:24:02.957Z,7.71
2023-03-01T08:26:08.642Z,7.67
2023-03-01T08:28:11.163Z,9.40
2023-03-01T08:30:14.945Z,9.45
2023-03-01T08:32:18.023Z,9.53
2023-03-01T08:34:22.561Z,10.23
2023-03-01T08:36:27.394Z,10.17
2023-03-01T08:38:30.313Z,9.71
2023-03-01T08:40:33.825Z,9.22
2023-03-01T08:42:36.821Z,9.78
2023-03-01T08:44:39.886Z,9.33
2023-03-01T08:46:44.904Z,8.78
2023-03-01T08:48:47.729Z,9.69
2023-03-01T08:50:52.208Z,8.68
2023-03-01T08:52:55.027Z,8.31
2023-03-01T08:54:58.052Z,7.86
2023-03-01T08:57:03.339Z,8.62
2023-03-01T08:59:06.563Z,9.45
2023-03-01T09:01:10.718Z,9.84
2023-03-01T09:03:13.760Z,8.54
2023-03-01T09:05:18.133Z,8.04
2023-03-01T09:07:29.424Z,7.93
2023-03-01T09:09:32.510Z,7.56
2023-03-01T09:11:35.655Z,7.68
2023-03-01T09:13:38.654Z,6.55
2023-03-01T09:15:41.614Z,6.73
2023-03-01T09:17:45.272Z,8.53
2023-03-01T09:19:48.178Z,7.98
2023-03-01T09:21:54.209Z,8.04
2023-03-01T09:23:59.838Z,6.78
2023-03-01T09:26:02.310Z,8.25
2023-03-01T09:28:05.451Z,7.80
2023-03-01T09:30:09.843Z,7.36
2023-03-01T09:32:13.048Z,6.80
2023-03-01T09:34:24.546Z,8.66
2023-03-01T09:36:27.619Z,9.03
2023-03-01T09:38:30.830Z,7.77
2023-03-01T09:40:35.391Z,8.39
2023-03-01T09:42:49.956Z,7.57
2023-03-01T09:44:56.539Z,5.95
2023-03-01T09:47:00.555Z,6.83
2023-03-01T09:49:10.481Z,7.30
2023-03-01T09:51:19.799Z,7.70
2023-03-01T09:53:24.063Z,8.33
2023-03-01T09:55:31.514Z,7.16
2023-03-01T09:57:42.921Z,7.63
2023-03-01T09:59:59.231Z,6.79
2023-03-01T10:02:17.700Z,6.64
2023-03-01T10:04:41.887Z,5.55
2023-03-01T10:06:52.116Z,5.00
2023-03-01T10:08:59.736Z,5.09
2023-03-01T10:11:03.144Z,4.78
2023-03-01T10:13:16.054Z,7.23
2023-03-01T10:15:23.691Z,5.88
2023-03-01T10:17:33.031Z,5.97
2023-03-01T10:19:41.266Z,6.47
2023-03-01T10:21:47.569Z,5.70
2023-03-01T10:23:53.986Z,5.40
2023-03-01T10:26:13.791Z,6.20
2023-03-01T10:28:26.535Z,6.14
2023-03-01T10:30:37.447Z,6.11
2023-03-01T10:32:41.061Z,6.48
2023-03-01T10:34:44.033Z,8.08
2023-03-01T10:36:50.821Z,7.67
2023-03-01T10:38:55.696Z,6.89
2023-03-01T10:41:00.741Z,7.59
2023-03-01T10:43:06.232Z,7.67
2023-03-01T10:45:32.340Z,8.26
2023-03-01T10:47:35.245Z,7.70
2023-03-01T10:49:38.165Z,7.47
2023-03-01T10:51:42.283Z,7.48
2023-03-01T10:53:52.211Z,7.73
2023-03-01T10:56:04.120Z,8.22
2023-03-01T10:58:20.416Z,7.02
2023-03-01T11:00:27.535Z,7.59
2023-03-01T11:02:34.018Z,7.71
2023-03-01T11:04:37.336Z,7.71
2023-03-01T11:06:42.134Z,7.49
2023-03-01T11:08:47.244Z,7.35
2023-03-01T11:10:50.314Z,7.27
2023-03-01T11:12:54.366Z,7.52
2023-03-01T11:14:58.239Z,7.97
2023-03-01T11:17:04.341Z,7.53
2023-03-01T11:19:20.416Z,6.71
2023-03-01T11:21:23.513Z,6.69
2023-03-01T11:23:29.158Z,6.57
2023-03-01T11:25:36.838Z,6.52
2023-03-01T11:27:44.631Z,6.81
2023-03-01T11:29:53.678Z,6.67
2023-03-01T11:32:03.024Z,6.88
2023-03-01T11:34:13.921Z,7.37
2023-03-01T11:36:30.290Z,7.81
2023-03-01T11:38:36.850Z,7.77
2023-03-01T11:40:46.161Z,6.98
2023-03-01T11:43:01.483Z,7.20
2023-03-01T11:45:11.501Z,7.04
2023-03-01T11:47:33.132Z,7.37
2023-03-01T11:49:57.178Z,6.83
2023-03-01T11:52:08.346Z,6.05
2023-03-01T11:54:26.718Z,5.58
2023-03-01T11:56:36.535Z,5.70
2023-03-01T11:59:05.422Z,5.98
2023-03-01T12:01:25.753Z,6.31
2023-03-01T12:03:45.564Z,6.98
2023-03-01T12:06:32.940Z,6.55
2023-03-01T12:08:43.572Z,6.22
2023-03-01T12:10:58.140Z,6.40
2023-03-01T12:13:19.559Z,6.66
2023-03-01T12:15:43.611Z,6.12
2023-03-01T12:18:12.357Z,6.06
2023-03-01T12:20:32.040Z,5.65
2023-03-01T12:22:45.815Z,6.42
2023-03-01T12:25:13.639Z,6.47
2023-03-01T12:27:36.297Z,6.18
2023-03-01T12:29:48.930Z,6.64
2023-03-01T12:32:23.763Z,7.02
2023-03-01T12:34:42.860Z,6.27
2023-03-01T12:37:16.192Z,6.76
2023-03-01T12:39:33.903Z,6.47
2023-03-01T12:41:48.573Z,6.50
2023-03-01T12:44:03.511Z,6.80
2023-03-01T12:46:17.681Z,6.66
2023-03-01T12:48:37.481Z,6.64
2023-03-01T12:50:44.203Z,6.96
2023-03-01T12:52:50.748Z,7.33
2023-03-01T12:54:59.015Z,7.48
2023-03-01T12:57:14.313Z,7.21
2023-03-01T12:59:22.374Z,6.84
2023-03-01T13:01:38.705Z,6.51
2023-03-01T13:04:07.432Z,6.85
2023-03-01T13:06:14.341Z,6.62
2023-03-01T13:08:22.332Z,7.25
2023-03-01T13:10:34.590Z,7.58
2023-03-01T13:12:47.260Z,7.21
2023-03-01T13:14:50.257Z,7.37
2023-03-01T13:16:54.029Z,6.72
2023-03-01T13:19:11.202Z,7.30
2023-03-01T13:21:14.334Z,7.14
2023-03-01T13:23:27.661Z,7.43
2023-03-01T13:25:37.692Z,7.28
2023-03-01T13:27:47.579Z,7.59
2023-03-01T13:29:52.952Z,7.38
2023-03-01T13:31:59.980Z,7.27
2023-03-01T13:34:08.536Z,7.08
2023-03-01T13:36:14.694Z,7.40
2023-03-01T13:38:40.205Z,6.97
2023-03-01T13:41:00.434Z,7.05
2023-03-01T13:43:33.136Z,7.47
2023-03-01T13:45:40.305Z,7.44
2023-03-01T13:47:44.388Z,7.27
2023-03-01T13:49:51.339Z,7.52
2023-03-01T13:51:54.354Z,7.62
2023-03-01T13:54:00.281Z,7.54
2023-03-01T13:56:10.721Z,7.65
2023-03-01T13:58:21.046Z,7.89
2023-03-01T14:00:34.604Z,7.67
2023-03-01T14:02:37.912Z,7.97
2023-03-01T14:04:42.147Z,7.48
2023-03-01T14:06:45.192Z,7.68
2023-03-01T14:08:50.805Z,7.64
2023-03-01T14:11:11.342Z,7.55
2023-03-01T14:13:33.343Z,7.89
2023-03-01T14:15:43.716Z,8.00
2023-03-01T14:17:59.980Z,7.56
2023-03-01T14:20:05.686Z,7.69
2023-03-01T14:22:20.800Z,7.57
2023-03-01T14:24:24.401Z,7.15
2023-03-01T14:26:27.688Z,7.01
2023-03-01T14:28:31.991Z,6.99
2023-03-01T14:30:42.291Z,7.32
2023-03-01T14:32:54.773Z,6.99
2023-03-01T14:34:58.640Z,6.86
2023-03-01T14:37:12.394Z,7.19
2023-03-01T14:39:19.893Z,7.17
2023-03-01T14:41:25.743Z,7.01
2023-03-01T14:43:30.759Z,7.10
2023-03-01T14:45:33.701Z,7.21
2023-03-01T14:47:42.376Z,7.11
2023-03-01T14:49:46.409Z,7.00
2023-03-01T14:51:55.260Z,6.86
2023-03-01T14:53:58.750Z,6.66
2023-03-01T14:56:06.274Z,6.64
2023-03-01T14:58:15.028Z,6.63
2023-03-01T15:00:21.603Z,6.46
2023-03-01T15:02:26.943Z,6.57
2023-03-01T15:04:32.579Z,6.56
2023-03-01T15:06:35.561Z,6.49
2023-03-01T15:08:42.551Z,6.44
2023-03-01T15:10:58.439Z,6.41
2023-03-01T15:13:12.591Z,6.42
2023-03-01T15:15:35.866Z,6.19
2023-03-01T15:17:40.516Z,5.94
2023-03-01T15:19:47.714Z,6.03
2023-03-01T15:21:51.442Z,6.01
2023-03-01T15:23:57.696Z,5.67
2023-03-01T15:26:01.811Z,5.59
2023-03-01T15:28:05.100Z,5.50
2023-03-01T15:30:18.766Z,5.56
2023-03-01T15:32:31.468Z,5.54
2023-03-01T15:34:35.938Z,5.48
2023-03-01T15:36:43.866Z,5.30
2023-03-01T15:38:55.662Z,5.40
2023-03-01T15:41:00.249Z,5.41
2023-03-01T15:43:05.744Z,5.32
2023-03-01T15:45:12.949Z,4.81
2023-03-01T15:47:28.776Z,4.93
2023-03-01T15:49:49.615Z,4.83
2023-03-01T15:51:59.485Z,4.64
2023-03-01T15:54:05.457Z,4.63
2023-03-01T15:56:12.875Z,4.67
2023-03-01T15:58:21.810Z,4.63
2023-03-01T16:00:25.630Z,4.46
2023-03-01T16:02:28.499Z,4.47
2023-03-01T16:04:31.492Z,4.36
2023-03-01T16:06:34.681Z,4.28
2023-03-01T16:08:39.540Z,4.04
2023-03-01T16:10:46.341Z,4.09
2023-03-01T16:12:50.785Z,4.00
2023-03-01T16:14:54.432Z,3.95
2023-03-01T16:16:57.859Z,3.88
2023-03-01T16:19:01.206Z,3.77
2023-03-01T16:21:04.311Z,3.54
2023-03-01T16:23:09.460Z,3.39
2023-03-01T16:25:16.062Z,3.07
2023-03-01T16:27:19.892Z,3.10
2023-03-01T16:29:22.858Z,2.93
2023-03-01T16:31:28.372Z,2.76
2023-03-01T16:33:34.129Z,2.66
2023-03-01T16:35:41.763Z,2.56
2023-03-01T16:37:45.679Z,2.28
2023-03-01T16:39:50.241Z,2.22
2023-03-01T16:41:54.631Z,2.15
2023-03-01T16:43:58.079Z,2.05
2023-03-01T16:46:01.045Z,1.80
2023-03-01T16:48:04.335Z,1.68
2023-03-01T16:50:07.692Z,1.57
2023-03-01T16:52:10.712Z,1.21
2023-03-01T16:54:13.895Z,1.37
2023-03-01T16:56:17.686Z,1.50
2023-03-01T16:58:22.256Z,1.47
2023-03-01T17:00:25.268Z,1.29
2023-03-01T17:02:28.472Z,1.34
2023-03-01T17:04:31.292Z,1.42
2023-03-01T17:06:34.259Z,1.35
2023-03-01T17:08:38.253Z,1.31
2023-03-01T17:10:43.145Z,1.30
2023-03-01T17:12:49.024Z,1.35
2023-03-01T17:14:53.471Z,1.36
2023-03-01T17:16:56.359Z,1.31
2023-03-01T17:18:59.373Z,1.31
2023-03-01T17:21:02.815Z,1.27
2023-03-01T17:23:06.355Z,1.17
2023-03-01T17:25:10.771Z,1.08
2023-03-01T17:27:14.394Z,1.08
2023-03-01T17:29:19.314Z,1.11
2023-03-01T17:31:24.288Z,1.01
2023-03-01T17:33:27.400Z,0.78
2023-03-01T17:35:30.356Z,0.75
2023-03-01T17:37:33.270Z,0.71
2023-03-01T17:39:36.610Z,0.85
2023-03-01T17:41:39.631Z,0.86
2023-03-01T17:43:42.639Z,0.65
2023-03-01T17:45:48.937Z,0.51
2023-03-01T17:47:53.600Z,0.47
2023-03-01T17:49:56.357Z,0.48
2023-03-01T17:51:59.547Z,0.44
2023-03-01T17:54:02.679Z,0.37
2023-03-01T17:56:07.393Z,0.35
2023-03-01T17:58:12.400Z,0.33
2023-03-01T18:00:16.968Z,0.30
2023-03-01T18:02:20.791Z,0.29
2023-03-01T18:04:26.492Z,0.16
2023-03-01T18:06:30.253Z,0.13
2023-03-01T18:08:34.411Z,0.13
2023-03-01T18:10:37.850Z,0.13
2023-03-01T18:12:40.710Z,0.13
2023-03-01T18:14:43.572Z,0.13
2023-03-01T18:16:46.398Z,0.13
2023-03-01T18:18:53.597Z,0.09
2023-03-01T18:20:58.904Z,0.04
2023-03-01T18:23:01.620Z,0.02
2023-03-01T18:25:05.396Z,-0.03
2023-03-01T18:27:08.712Z,-0.05
2023-03-01T18:29:11.640Z,-0.32
2023-03-01T18:31:18.755Z,-0.36
2023-03-01T18:33:22.023Z,-0.37
2023-03-01T18:35:25.115Z,-0.57
2023-03-01T18:37:29.531Z,-0.64
2023-03-01T18:39:32.661Z,-0.80
2023-03-01T18:41:36.791Z,-0.76
2023-03-01T18:43:39.701Z,-0.71
2023-03-01T18:45:45.487Z,-0.74
2023-03-01T18:47:50.180Z,-0.75
2023-03-01T18:49:53.295Z,-0.78
2023-03-01T18:51:56.852Z,-0.73
2023-03-01T18:54:01.991Z,-0.76
2023-03-01T18:56:05.461Z,-0.74
2023-03-01T18:58:08.372Z,-0.74
2023-03-01T19:00:12.522Z,-0.74
2023-03-01T19:02:16.089Z,-0.72
2023-03-01T19:04:19.520Z,-0.73
2023-03-01T19:06:23.682Z,-0.75
2023-03-01T19:08:27.202Z,-0.84
2023-03-01T19:10:32.178Z,-0.94
2023-03-01T19:12:36.020Z,-0.86
2023-03-01T19:14:39.043Z,-0.83
2023-03-01T19:16:42.142Z,-0.84
2023-03-01T19:18:50.503Z,-0.94
2023-03-01T19:21:03.367Z,-0.89
2023-03-01T19:23:06.832Z,-0.96
2023-03-01T19:25:10.927Z,-0.98
2023-03-01T19:27:15.560Z,-1.00
2023-03-01T19:29:18.372Z,-1.07
2023-03-01T19:31:24.511Z,-1.10
2023-03-01T19:33:27.658Z,-1.20
2023-03-01T19:35:30.838Z,-1.19
2023-03-01T19:37:35.434Z,-1.16
2023-03-01T19:39:38.398Z,-1.17
2023-03-01T19:41:41.756Z,-1.16
2023-03-01T19:43:47.789Z,-1.16
2023-03-01T19:45:52.140Z,-1.17
2023-03-01T19:47:54.964Z,-1.18
2023-03-01T19:49:57.998Z,-1.23
2023-03-01T19:52:00.894Z,-1.30
2023-03-01T19:54:06.164Z,-1.36
2023-03-01T19:56:09.933Z,-1.34
2023-03-01T19:58:13.095Z,-1.33
2023-03-01T20:00:18.512Z,-1.34
2023-03-01T20:02:21.589Z,-1.38
2023-03-01T20:04:24.613Z,-1.39
2023-03-01T20:06:29.829Z,-1.41
2023-03-01T20:08:32.965Z,-1.44
2023-03-01T20:10:35.955Z,-1.53
2023-03-01T20:12:38.967Z,-1.66
2023-03-01T20:14:41.926Z,-1.75
2023-03-01T20:16:46.332Z,-1.79
2023-03-01T20:18:49.286Z,-1.86
2023-03-01T20:20:52.412Z,-1.97
2023-03-01T20:22:55.295Z,-1.99
2023-03-01T20:24:58.344Z,-1.96
2023-03-01T20:27:02.042Z,-2.00
2023-03-01T20:29:07.329Z,-2.09
2023-03-01T20:31:12.347Z,-2.04
2023-03-01T20:33:16.853Z,-2.02
2023-03-01T20:35:19.856Z,-2.02
2023-03-01T20:37:25.853Z,-2.15
2023-03-01T20:39:28.966Z,-2.16
2023-03-01T20:41:32.013Z,-2.11
2023-03-01T20:43:35.828Z,-2.16
2023-03-01T20:45:38.978Z,-2.16
2023-03-01T20:47:41.717Z,-2.23
2023-03-01T20:49:46.257Z,-2.23
2023-03-01T20:51:49.098Z,-2.41
2023-03-01T20:53:52.311Z,-2.40
2023-03-01T20:55:55.390Z,-2.40
2023-03-01T20:57:58.259Z,-2.40
2023-03-01T21:00:01.557Z,-2.42
2023-03-01T21:02:04.605Z,-2.47
2023-03-01T21:04:07.697Z,-2.44
2023-03-01T21:06:12.107Z,-2.47
2023-03-01T21:08:15.077Z,-2.58
2023-03-01T21:10:18.265Z,-2.55
2023-03-01T21:12:21.242Z,-2.55
2023-03-01T21:14:24.908Z,-2.53
2023-03-01T21:16:28.524Z,-2.45
2023-03-01T21:18:33.039Z,-2.45
2023-03-01T21:20:42.963Z,-2.48
2023-03-01T21:22:47.639Z,-2.48
2023-03-01T21:24:52.031Z,-2.48
2023-03-01T21:26:54.975Z,-2.50
2023-03-01T21:29:01.596Z,-2.47
2023-03-01T21:31:06.760Z,-2.49
2023-03-01T21:33:09.923Z,-2.53
2023-03-01T21:35:13.609Z,-2.57
2023-03-01T21:37:17.305Z,-2.69
2023-03-01T21:39:22.498Z,-2.67
2023-03-01T21:41:27.372Z,-2.72
2023-03-01T21:43:30.231Z,-2.74
2023-03-01T21:45:35.846Z,-2.69
2023-03-01T21:47:39.707Z,-2.68
2023-03-01T21:49:42.607Z,-2.67
2023-03-01T21:51:45.602Z,-2.68
2023-03-01T21:53:48.784Z,-2.74
2023-03-01T21:55:53.241Z,-2.72
2023-03-01T21:57:56.140Z,-2.69
2023-03-01T21:59:58.958Z,-2.80
2023-03-01T22:02:01.929Z,-2.86
2023-03-01T22:04:05.912Z,-2.97
2023-03-01T22:06:09.030Z,-2.96
2023-03-01T22:08:12.657Z,-2.90
2023-03-01T22:10:16.276Z,-2.89
2023-03-01T22:12:20.698Z,-2.92
2023-03-01T22:14:23.716Z,-3.02
2023-03-01T22:16:28.600Z,-3.09
2023-03-01T22:18:31.602Z,-3.17
2023-03-01T22:20:34.524Z,-3.16
2023-03-01T22:22:37.425Z,-3.14
2023-03-01T22:24:40.327Z,-3.16
2023-03-01T22:26:44.784Z,-3.26
2023-03-01T22:28:49.396Z,-3.29
2023-03-01T22:30:52.955Z,-3.24
2023-03-01T22:32:56.171Z,-3.19
2023-03-01T22:34:59.129Z,-3.19
2023-03-01T22:37:02.206Z,-3.23
2023-03-01T22:39:05.662Z,-3.26
2023-03-01T22:41:09.006Z,-3.24
2023-03-01T22:43:11.915Z,-3.22
2023-03-01T22:45:16.744Z,-3.27
2023-03-01T22:47:19.611Z,-3.29
2023-03-01T22:49:22.757Z,-3.35
2023-03-01T22:51:28.272Z,-3.37
2023-03-01T22:53:31.683Z,-3.37
2023-03-01T22:55:34.621Z,-3.39
2023-03-01T22:57:37.633Z,-3.38
2023-03-01T22:59:41.773Z,-3.43
2023-03-01T23:01:48.158Z,-3.43
2023-03-01T23:03:51.550Z,-3.48
2023-03-01T23:05:54.592Z,-3.43
2023-03-01T23:07:57.513Z,-3.42
2023-03-01T23:10:02.997Z,-3.42
2023-03-01T23:12:07.749Z,-3.42
2023-03-01T23:14:11.194Z,-3.41
2023-03-01T23:16:14.574Z,-3.40
2023-03-01T23:18:19.010Z,-3.40
2023-03-01T23:20:22.163Z,-3.41
2023-03-01T23:22:25.308Z,-3.41
2023-03-01T23:24:32.122Z,-3.40
2023-03-01T23:26:35.143Z,-3.41
2023-03-01T23:28:41.237Z,-3.39
2023-03-01T23:30:45.609Z,-3.40
2023-03-01T23:32:48.878Z,-3.40
2023-03-01T23:34:53.241Z,-3.44
2023-03-01T23:36:58.274Z,-3.43
2023-03-01T23:39:04.320Z,-3.44
2023-03-01T23:41:10.197Z,-3.44
2023-03-01T23:43:13.230Z,-3.45
2023-03-01T23:45:16.216Z,-3.45
2023-03-01T23:47:19.086Z,-3.45
2023-03-01T23:49:24.231Z,-3.46
2023-03-01T23:51:28.722Z,-3.48
2023-03-01T23:53:31.717Z,-3.54
2023-03-01T23:55:35.208Z,-3.59
2023-03-01T23:57:38.195Z,-3.57
2023-03-01T23:59:41.488Z,-3.59
